createdAt,value
2022-10-05T00:01:21.604Z,4.2
2022-10-05T00:03:30.310Z,4.1
2022-10-05T00:05:36.117Z,5.2
2022-10-05T00:07:41.893Z,4.7
2022-10-05T00:09:47.687Z,5.4
2022-10-05T00:18:13.896Z,4.8
2022-10-05T00:20:19.709Z,5.2
2022-10-05T00:22:25.520Z,5.2
2022-10-05T00:24:55.002Z,5.3
2022-10-05T00:27:00.824Z,4.5
2022-10-05T00:29:06.639Z,5.3
2022-10-05T00:33:21.210Z,3.8
2022-10-05T00:35:27.027Z,4.7
2022-10-05T00:39:38.622Z,5.3
2022-10-05T00:43:50.254Z,5.2
2022-10-05T00:45:59.126Z,4.5
2022-10-05T00:48:04.821Z,5.3
2022-10-05T00:50:10.640Z,4.5
2022-10-05T00:52:16.459Z,4.7
2022-10-05T00:54:22.262Z,4.8
2022-10-05T00:56:28.095Z,4.1
2022-10-05T00:58:33.898Z,4.9
2022-10-05T01:00:42.654Z,4.6
2022-10-05T01:07:00.142Z,3.9
2022-10-05T01:09:05.913Z,4.3
2022-10-05T01:13:17.536Z,3.9
2022-10-05T01:15:26.304Z,4.8
2022-10-05T01:19:37.950Z,5.6
2022-10-05T01:20:42.325Z,5
2022-10-05T01:22:48.145Z,5
2022-10-05T01:24:54.299Z,4.8
2022-10-05T01:27:00.094Z,4
2022-10-05T01:29:10.538Z,4.8
2022-10-05T01:33:22.052Z,4.9
2022-10-05T01:35:27.881Z,4.9
2022-10-05T01:43:54.106Z,4.6
2022-10-05T01:45:59.954Z,4.5
2022-10-05T01:48:05.687Z,5
2022-10-05T01:50:11.497Z,4.8
2022-10-05T01:52:17.304Z,5.2
2022-10-05T01:54:23.099Z,4.7
2022-10-05T01:56:28.908Z,6.3
2022-10-05T01:58:37.691Z,5.4
2022-10-05T02:00:43.608Z,4.9
2022-10-05T02:02:49.280Z,5
2022-10-05T02:05:02.063Z,4.3
2022-10-05T02:07:00.929Z,6.1
2022-10-05T02:09:06.723Z,5.7
2022-10-05T02:15:27.128Z,4.1
2022-10-05T02:17:32.908Z,5.9
2022-10-05T02:18:37.286Z,5.8
2022-10-05T02:22:48.928Z,5.8
2022-10-05T02:24:54.734Z,5.3
2022-10-05T02:27:03.510Z,5.3
2022-10-05T02:29:09.312Z,4.5
2022-10-05T02:31:15.205Z,5.3
2022-10-05T02:33:20.939Z,5.8
2022-10-05T02:35:26.745Z,5.7
2022-10-05T02:37:32.572Z,4.8
2022-10-05T02:39:38.375Z,5.8
2022-10-05T02:41:47.140Z,6.5
2022-10-05T02:45:58.827Z,4.9
2022-10-05T02:48:04.577Z,5.4
2022-10-05T02:50:10.375Z,6
2022-10-05T02:54:21.994Z,5.9
2022-10-05T02:56:30.903Z,7.2
2022-10-05T02:58:36.587Z,5.3
2022-10-05T03:00:42.431Z,5.6
2022-10-05T03:02:48.234Z,5
2022-10-05T03:04:54.019Z,5.8
2022-10-05T03:06:59.811Z,6.2
2022-10-05T03:09:05.619Z,6.6
2022-10-05T03:11:14.372Z,8.3
2022-10-05T03:13:20.202Z,5.2
2022-10-05T03:15:25.984Z,7.7
2022-10-05T03:16:30.437Z,7
2022-10-05T03:18:36.195Z,5.8
2022-10-05T03:20:42.001Z,7.2
2022-10-05T03:22:47.812Z,6.2
2022-10-05T03:24:56.572Z,8.4
2022-10-05T03:27:02.396Z,6.9
2022-10-05T03:29:08.195Z,7.2
2022-10-05T03:33:19.811Z,6.5
2022-10-05T03:35:25.605Z,5.9
2022-10-05T03:37:31.404Z,6.1
2022-10-05T03:39:40.195Z,6.8
2022-10-05T03:43:51.781Z,7
2022-10-05T03:45:57.600Z,7.6
2022-10-05T03:48:03.403Z,6.5
2022-10-05T03:50:09.191Z,6.7
2022-10-05T03:52:15.023Z,6.2
2022-10-05T03:56:29.588Z,6.8
2022-10-05T03:58:35.371Z,8.2
2022-10-05T04:00:41.161Z,7.2
2022-10-05T04:02:47.038Z,6
2022-10-05T04:04:52.778Z,6.8
2022-10-05T04:06:58.576Z,6.9
2022-10-05T04:13:18.959Z,7
2022-10-05T04:15:44.720Z,7.3
2022-10-05T04:17:50.565Z,7.6
2022-10-05T04:19:56.325Z,7.5
2022-10-05T04:24:10.914Z,7
2022-10-05T04:26:16.702Z,6.7
2022-10-05T04:28:22.635Z,5.9
2022-10-05T04:30:28.316Z,5.8
2022-10-05T04:32:34.130Z,7.2
2022-10-05T04:34:39.959Z,4.3
2022-10-05T04:36:48.979Z,7.8
2022-10-05T04:38:54.510Z,6.4
2022-10-05T04:41:00.302Z,5.5
2022-10-05T04:43:06.094Z,5.4
2022-10-05T04:45:11.906Z,5.9
2022-10-05T04:47:17.724Z,7
2022-10-05T04:49:23.543Z,7.3
2022-10-05T04:51:32.304Z,6.5
2022-10-05T04:53:38.129Z,7.1
2022-10-05T04:55:43.909Z,6.4
2022-10-05T04:57:49.715Z,5.7
2022-10-05T04:59:55.548Z,6.8
2022-10-05T05:02:01.345Z,6.1
2022-10-05T05:04:07.229Z,4.9
2022-10-05T05:06:17.804Z,5.5
2022-10-05T05:08:21.734Z,5.2
2022-10-05T05:10:27.542Z,5.4
2022-10-05T05:13:37.773Z,4.6
2022-10-05T05:17:49.324Z,4.3
2022-10-05T05:19:58.103Z,8.1
2022-10-05T05:22:03.919Z,5
2022-10-05T05:24:09.688Z,4.5
2022-10-05T05:26:15.498Z,4.6
2022-10-05T05:28:21.379Z,5.2
2022-10-05T05:30:27.111Z,6.2
2022-10-05T05:32:32.916Z,5.2
2022-10-05T05:34:41.663Z,5
2022-10-05T05:36:47.831Z,6.4
2022-10-05T05:38:53.278Z,4.4
2022-10-05T05:40:59.067Z,6
2022-10-05T05:43:04.891Z,5.5
2022-10-05T05:45:10.682Z,6.3
2022-10-05T05:47:16.491Z,5
2022-10-05T05:49:25.273Z,6.6
2022-10-05T05:51:31.072Z,6.5
2022-10-05T05:55:42.662Z,6
2022-10-05T06:04:08.859Z,6.1
2022-10-05T06:06:14.677Z,5.1
2022-10-05T06:09:24.837Z,5.9
2022-10-05T06:11:30.647Z,5.9
2022-10-05T06:13:36.475Z,5.4
2022-10-05T06:15:42.250Z,5.1
2022-10-05T06:17:51.059Z,6.2
2022-10-05T06:20:01.108Z,5
2022-10-05T06:22:02.676Z,6.1
2022-10-05T06:24:08.470Z,5.8
2022-10-05T06:26:14.278Z,6.9
2022-10-05T06:28:20.209Z,5.3
2022-10-05T06:30:25.881Z,5.8
2022-10-05T06:34:40.459Z,6.1
2022-10-05T06:36:46.498Z,6.6
2022-10-05T06:38:52.052Z,6.9
2022-10-05T06:40:57.858Z,5.1
2022-10-05T06:43:03.687Z,6.2
2022-10-05T06:47:18.278Z,5.7
2022-10-05T06:49:24.068Z,4.7
2022-10-05T06:51:29.886Z,5.2
2022-10-05T06:53:35.700Z,5.1
2022-10-05T06:55:41.532Z,5.2
2022-10-05T06:57:47.300Z,3.9
2022-10-05T06:59:53.116Z,4.6
2022-10-05T07:02:01.988Z,4.7
2022-10-05T07:04:07.739Z,5.5
2022-10-05T07:06:13.539Z,5.3
2022-10-05T07:07:17.936Z,4.2
2022-10-05T07:13:35.352Z,4.5
2022-10-05T07:15:44.093Z,4.7
2022-10-05T07:19:55.700Z,3.6
2022-10-05T07:22:01.552Z,3.4
2022-10-05T07:24:07.316Z,4.4
2022-10-05T07:26:13.131Z,4.3
2022-10-05T07:30:27.694Z,3.5
2022-10-05T07:32:35.111Z,3.3
2022-10-05T07:34:40.865Z,3.9
2022-10-05T07:38:52.518Z,2.7
2022-10-05T07:40:58.283Z,3.3
2022-10-05T07:43:04.081Z,3.3
2022-10-05T07:45:12.892Z,2.9
2022-10-05T07:47:18.698Z,3
2022-10-05T07:53:36.101Z,2.2
2022-10-05T07:55:41.923Z,2.6
2022-10-05T07:59:56.526Z,3.3
2022-10-05T08:02:02.455Z,3
2022-10-05T08:04:08.152Z,2.8
2022-10-05T08:15:05.646Z,3.2
2022-10-05T08:19:17.222Z,4.6
2022-10-05T08:21:23.042Z,2.3
2022-10-05T08:23:28.836Z,3.6
2022-10-05T08:25:34.660Z,3.3
2022-10-05T08:27:43.442Z,3.2
2022-10-05T08:31:55.030Z,2.2
2022-10-05T08:38:12.458Z,2.8
2022-10-05T08:40:18.266Z,2.8
2022-10-05T08:42:27.054Z,2.7
2022-10-05T08:44:32.863Z,5.2
2022-10-05T08:46:38.861Z,3.1
2022-10-05T08:48:44.487Z,2.5
2022-10-05T08:50:50.288Z,3
2022-10-05T08:52:56.101Z,2.6
2022-10-05T08:55:01.894Z,11.2
2022-10-05T08:57:10.704Z,4
2022-10-05T08:59:16.502Z,2.7
2022-10-05T09:01:22.393Z,4.3
2022-10-05T09:02:26.798Z,2.4
2022-10-05T09:04:32.521Z,2.6
2022-10-05T09:06:38.345Z,3.7
2022-10-05T09:08:44.150Z,3.2
2022-10-05T09:10:52.927Z,2.8
2022-10-05T09:12:58.728Z,2.6
2022-10-05T09:15:24.905Z,2.9
2022-10-05T09:17:10.344Z,2.5
2022-10-05T09:19:16.172Z,2.2
2022-10-05T09:21:21.962Z,2.4
2022-10-05T09:25:36.574Z,2.2
2022-10-05T09:27:42.389Z,2.3
2022-10-05T09:31:53.997Z,2.2
2022-10-05T09:36:05.612Z,2.3
2022-10-05T09:38:11.425Z,1.3
2022-10-05T09:40:20.191Z,1.9
2022-10-05T09:42:26.010Z,2.5
2022-10-05T09:44:31.822Z,2.6
2022-10-05T09:46:37.827Z,1.9
2022-10-05T09:48:43.435Z,1.7
2022-10-05T09:50:49.242Z,2.2
2022-10-05T09:52:55.067Z,3.1
2022-10-05T09:55:03.837Z,3.2
2022-10-05T09:59:15.435Z,2.2
2022-10-05T10:00:19.840Z,2.4
2022-10-05T10:02:25.791Z,2.1
2022-10-05T10:04:31.457Z,2.2
2022-10-05T10:06:37.257Z,2
2022-10-05T10:08:46.043Z,2.6
2022-10-05T10:10:51.895Z,2.5
2022-10-05T10:12:57.688Z,3
2022-10-05T10:15:03.479Z,2.2
2022-10-05T10:17:09.277Z,5.3
2022-10-05T10:19:15.101Z,2
2022-10-05T10:21:20.882Z,2.1
2022-10-05T10:23:29.683Z,2.1
2022-10-05T10:25:35.482Z,2.2
2022-10-05T10:27:41.276Z,2
2022-10-05T10:29:47.084Z,2.5
2022-10-05T10:36:06.924Z,2
2022-10-05T10:38:13.270Z,3
2022-10-05T10:42:26.250Z,1.6
2022-10-05T10:44:30.657Z,2.4
2022-10-05T10:46:36.540Z,2.7
2022-10-05T10:48:42.269Z,2.8
2022-10-05T10:50:48.094Z,2
2022-10-05T10:52:56.856Z,2.2
2022-10-05T10:55:02.677Z,2.3
2022-10-05T10:57:08.468Z,2.5
2022-10-05T10:58:16.062Z,1.9
2022-10-05T11:00:18.679Z,2.7
2022-10-05T11:02:24.545Z,2.7
2022-10-05T11:04:30.263Z,2
2022-10-05T11:06:39.081Z,2.3
2022-10-05T11:08:44.857Z,2.3
2022-10-05T11:10:50.640Z,2.6
2022-10-05T11:12:56.448Z,2.5
2022-10-05T11:15:02.243Z,2.4
2022-10-05T11:17:08.055Z,2.5
2022-10-05T11:19:13.840Z,2
2022-10-05T11:21:22.616Z,4.3
2022-10-05T11:25:34.317Z,1.6
2022-10-05T11:29:45.791Z,1.9
2022-10-05T11:31:52.249Z,1.8
2022-10-05T11:36:06.177Z,1.7
2022-10-05T11:38:11.989Z,2
2022-10-05T11:40:17.802Z,2.2
2022-10-05T11:42:23.616Z,2.2
2022-10-05T11:44:29.389Z,2.2
2022-10-05T11:46:35.256Z,2.2
2022-10-05T11:48:41.013Z,1.8
2022-10-05T11:50:49.799Z,2.5
2022-10-05T11:52:55.607Z,2
2022-10-05T11:55:12.082Z,1.8
2022-10-05T12:01:44.246Z,1.2
2022-10-05T12:03:53.173Z,3.9
2022-10-05T12:05:58.836Z,2.4
2022-10-05T12:08:04.636Z,1.6
2022-10-05T12:10:10.425Z,1.3
2022-10-05T12:12:16.214Z,2.1
2022-10-05T12:14:21.998Z,2.3
2022-10-05T12:18:36.593Z,2.1
2022-10-05T12:20:42.382Z,1.8
2022-10-05T12:22:48.210Z,2.1
2022-10-05T12:24:54.004Z,1.9
2022-10-05T12:26:59.778Z,1.7
2022-10-05T12:29:05.574Z,1.9
2022-10-05T12:31:11.488Z,2.4
2022-10-05T12:33:20.164Z,2.5
2022-10-05T12:35:43.756Z,2.2
2022-10-05T12:37:31.754Z,1.5
2022-10-05T12:39:37.557Z,1.8
2022-10-05T12:41:43.340Z,1.9
2022-10-05T12:43:49.127Z,2.1
2022-10-05T12:45:55.015Z,1.9
2022-10-05T12:48:03.717Z,2.5
2022-10-05T12:50:09.486Z,2.4
2022-10-05T12:52:15.273Z,1.6
2022-10-05T12:55:25.463Z,1.4
2022-10-05T13:01:45.889Z,1.9
2022-10-05T13:03:51.588Z,1.8
2022-10-05T13:10:08.950Z,1.4
2022-10-05T13:12:14.741Z,1.4
2022-10-05T13:14:20.508Z,1.7
2022-10-05T13:16:29.389Z,2.1
2022-10-05T13:18:35.074Z,1.7
2022-10-05T13:22:46.677Z,1.2
2022-10-05T13:24:52.477Z,1.3
2022-10-05T13:26:58.256Z,1.7
2022-10-05T13:29:04.070Z,1.9
2022-10-05T13:31:12.882Z,2.2
2022-10-05T13:33:18.627Z,1.6
2022-10-05T13:35:26.019Z,2.1
2022-10-05T13:37:31.758Z,2.8
2022-10-05T13:39:37.531Z,2
2022-10-05T13:41:43.323Z,7.4
2022-10-05T13:45:57.931Z,1.8
2022-10-05T13:48:03.694Z,1.6
2022-10-05T13:50:09.487Z,2.6
2022-10-05T13:51:14.170Z,0.7
2022-10-05T13:55:25.434Z,2.2
2022-10-05T14:01:45.819Z,1.8
2022-10-05T14:03:51.549Z,1.5
2022-10-05T14:05:57.350Z,1.2
2022-10-05T14:08:03.135Z,1.5
2022-10-05T14:10:08.969Z,1.5
2022-10-05T14:12:14.734Z,1.3
2022-10-05T14:14:23.499Z,2.9
2022-10-05T14:16:29.511Z,1.2
2022-10-05T14:18:35.071Z,1.8
2022-10-05T14:20:40.878Z,1.4
2022-10-05T14:22:46.654Z,1.8
2022-10-05T14:24:52.438Z,1.2
2022-10-05T14:29:06.999Z,1.2
2022-10-05T14:31:13.304Z,2.8
2022-10-05T14:33:18.565Z,1.1
2022-10-05T14:35:24.374Z,1.3
2022-10-05T14:37:30.165Z,1.8
2022-10-05T14:39:35.935Z,1.3
2022-10-05T14:41:41.763Z,1.1
2022-10-05T14:45:56.381Z,1.4
2022-10-05T14:48:02.088Z,1.6
2022-10-05T14:49:06.477Z,1.3
2022-10-05T14:51:12.286Z,2.3
2022-10-05T14:53:18.066Z,1.7
2022-10-05T14:55:23.834Z,2.1
2022-10-05T14:57:32.618Z,1.7
2022-10-05T15:01:44.317Z,1.9
2022-10-05T15:03:50.033Z,1.9
2022-10-05T15:05:55.794Z,1.7
2022-10-05T15:08:01.599Z,1.1
2022-10-05T15:10:07.481Z,2.2
2022-10-05T15:14:21.961Z,1.8
2022-10-05T15:18:33.562Z,1.3
2022-10-05T15:20:39.349Z,1.9
2022-10-05T15:22:45.144Z,1.8
2022-10-05T15:24:50.951Z,5.2
2022-10-05T15:33:17.157Z,2.3
2022-10-05T15:35:22.953Z,3
2022-10-05T15:37:28.766Z,1.6
2022-10-05T15:39:34.543Z,1.3
2022-10-05T15:41:43.330Z,2
2022-10-05T15:43:49.100Z,1.4
2022-10-05T15:45:54.971Z,1.2
2022-10-05T15:50:31.934Z,1.8
2022-10-05T15:54:46.503Z,2.8
2022-10-05T15:56:52.327Z,1.5
2022-10-05T15:58:58.142Z,2.3
2022-10-05T16:01:04.091Z,1.2
2022-10-05T16:03:09.759Z,1.9
2022-10-05T16:05:15.544Z,1.3
2022-10-05T16:07:21.357Z,1.7
2022-10-05T16:09:30.132Z,3.9
2022-10-05T16:11:35.923Z,1.7
2022-10-05T16:13:41.728Z,1.1
2022-10-05T16:15:47.534Z,1.7
2022-10-05T16:17:53.326Z,1.3
2022-10-05T16:19:59.113Z,1.4
2022-10-05T16:22:04.937Z,2.3
2022-10-05T16:24:13.680Z,2
2022-10-05T16:30:31.188Z,1.2
2022-10-05T16:32:36.905Z,0.9
2022-10-05T16:34:42.697Z,1.4
2022-10-05T16:41:03.087Z,1.5
2022-10-05T16:44:13.285Z,1.1
2022-10-05T16:46:21.906Z,1.1
2022-10-05T16:48:25.346Z,1.1
2022-10-05T16:50:30.682Z,2.2
2022-10-05T16:52:39.455Z,1.3
2022-10-05T16:54:47.857Z,1.2
2022-10-05T16:56:51.063Z,1.1
2022-10-05T17:01:02.720Z,1.2
2022-10-05T17:03:08.488Z,1.5
2022-10-05T17:05:14.301Z,1.2
2022-10-05T17:07:23.092Z,1.3
2022-10-05T17:11:34.726Z,0.9
2022-10-05T17:13:40.503Z,1.3
2022-10-05T17:15:46.444Z,1.3
2022-10-05T17:17:52.115Z,1.5
2022-10-05T17:19:57.996Z,1.7
2022-10-05T17:22:06.714Z,1.3
2022-10-05T17:24:12.523Z,1.5
2022-10-05T17:28:24.437Z,1.7
2022-10-05T17:30:29.916Z,1
2022-10-05T17:32:35.711Z,1.4
2022-10-05T17:34:41.548Z,1.1
2022-10-05T17:36:50.329Z,1.9
2022-10-05T17:38:56.128Z,1.2
2022-10-05T17:41:01.938Z,1.7
2022-10-05T17:42:06.344Z,1.4
2022-10-05T17:44:12.178Z,1.3
2022-10-05T17:48:23.965Z,1.4
2022-10-05T17:50:32.550Z,1.7
2022-10-05T17:52:38.373Z,1.5
2022-10-05T17:54:44.161Z,1.4
2022-10-05T17:58:55.768Z,1.6
2022-10-05T18:01:01.592Z,1.1
2022-10-05T18:03:07.444Z,2.2
2022-10-05T18:05:16.185Z,2
2022-10-05T18:07:21.997Z,1
2022-10-05T18:09:27.804Z,2.2
2022-10-05T18:11:33.367Z,1.7
2022-10-05T18:13:39.147Z,2.2
2022-10-05T18:15:45.065Z,1.5
2022-10-05T18:17:50.815Z,1.7
2022-10-05T18:19:59.598Z,1.7
2022-10-05T18:22:05.392Z,1.3
2022-10-05T18:26:17.013Z,1.6
2022-10-05T18:28:22.941Z,2.1
2022-10-05T18:30:28.617Z,1
2022-10-05T18:32:34.418Z,1
2022-10-05T18:34:43.218Z,1.5
2022-10-05T18:36:49.003Z,1.3
2022-10-05T18:38:54.837Z,1.3
2022-10-05T18:39:59.204Z,1.6
2022-10-05T18:42:05.034Z,1.3
2022-10-05T18:44:10.843Z,1.9
2022-10-05T18:46:16.715Z,2.4
2022-10-05T18:48:25.653Z,1.6
2022-10-05T18:50:31.208Z,1.2
2022-10-05T18:52:37.005Z,2.2
2022-10-05T18:54:42.809Z,4.9
2022-10-05T19:03:09.012Z,1.5
2022-10-05T19:05:29.535Z,1.3
2022-10-05T19:09:26.434Z,1.2
2022-10-05T19:11:32.229Z,1.7
2022-10-05T19:13:38.028Z,1.5
2022-10-05T19:15:43.937Z,1.3
2022-10-05T19:17:52.631Z,1.4
2022-10-05T19:19:58.443Z,1.4
2022-10-05T19:22:04.238Z,1.4
2022-10-05T19:26:15.823Z,1.6
2022-10-05T19:28:21.717Z,1.6
2022-10-05T19:30:27.472Z,1.2
2022-10-05T19:32:36.229Z,2.5
2022-10-05T19:34:42.040Z,1.9
2022-10-05T19:36:47.840Z,1.9
2022-10-05T19:39:20.685Z,1.7
2022-10-05T19:43:32.279Z,0.9
2022-10-05T19:45:41.087Z,1.7
2022-10-05T19:47:46.863Z,1.3
2022-10-05T19:49:52.670Z,1.3
2022-10-05T19:51:58.478Z,1.5
2022-10-05T19:54:04.264Z,1.1
2022-10-05T19:56:10.069Z,2
2022-10-05T19:58:15.880Z,1.7
2022-10-05T20:00:24.696Z,1.3
2022-10-05T20:04:36.277Z,1.9
2022-10-05T20:06:42.088Z,1.9
2022-10-05T20:08:47.888Z,2.5
2022-10-05T20:10:53.719Z,2.4
2022-10-05T20:12:59.513Z,3.9
2022-10-05T20:15:08.297Z,3.3
2022-10-05T20:17:14.097Z,1.2
2022-10-05T20:19:19.914Z,0.8
2022-10-05T20:21:25.745Z,1.9
2022-10-05T20:23:31.588Z,0.6
2022-10-05T20:25:37.361Z,0.3
2022-10-05T20:27:43.186Z,0.5
2022-10-05T20:29:51.962Z,0.9
2022-10-05T20:31:57.788Z,0.7
2022-10-05T20:34:03.619Z,0.8
2022-10-05T20:35:07.999Z,0.7
2022-10-05T20:37:13.826Z,0.8
2022-10-05T20:39:19.610Z,0.4
2022-10-05T20:41:25.433Z,0.9
2022-10-05T20:43:34.221Z,0.9
2022-10-05T20:45:40.027Z,0.7
2022-10-05T20:47:45.843Z,0.8
2022-10-05T20:49:51.661Z,0.3
2022-10-05T20:51:57.476Z,0.5
2022-10-05T20:54:03.261Z,0.6
2022-10-05T20:56:09.088Z,0.8
2022-10-05T20:58:17.866Z,1.3
2022-10-05T21:00:23.703Z,0.8
2022-10-05T21:02:29.479Z,1.2
2022-10-05T21:04:40.301Z,1.9
2022-10-05T21:06:41.097Z,1
2022-10-05T21:08:46.908Z,0.7
2022-10-05T21:13:01.496Z,0.8
2022-10-05T21:17:13.124Z,0.7
2022-10-05T21:21:24.722Z,1.1
2022-10-05T21:23:30.532Z,1.2
2022-10-05T21:25:36.304Z,1.7
2022-10-05T21:27:45.102Z,0.9
2022-10-05T21:29:50.894Z,0.8
2022-10-05T21:31:56.742Z,1
2022-10-05T21:33:01.142Z,1.3
2022-10-05T21:35:06.925Z,1.5
2022-10-05T21:37:12.719Z,0.9
2022-10-05T21:39:18.514Z,0.5
2022-10-05T21:41:27.288Z,1.6
2022-10-05T21:45:38.998Z,2.6
2022-10-05T21:47:44.715Z,0.6
2022-10-05T21:49:50.526Z,1.5
2022-10-05T21:51:56.328Z,2.4
2022-10-05T21:54:02.134Z,2.2
2022-10-05T21:58:16.705Z,0.6
2022-10-05T22:00:22.505Z,1
2022-10-05T22:02:28.309Z,1.3
2022-10-05T22:04:34.124Z,0.7
2022-10-05T22:06:39.937Z,0.8
2022-10-05T22:08:45.718Z,0.4
2022-10-05T22:10:54.496Z,1.7
2022-10-05T22:13:00.308Z,5.7
2022-10-05T22:17:11.926Z,0.5
2022-10-05T22:19:17.698Z,0.6
2022-10-05T22:21:23.510Z,0.5
2022-10-05T22:23:29.305Z,0.6
2022-10-05T22:27:43.890Z,0.5
2022-10-05T22:30:54.084Z,0.5
2022-10-05T22:32:59.892Z,0.6
2022-10-05T22:35:09.210Z,0.4
2022-10-05T22:37:11.499Z,0.4
2022-10-05T22:39:20.279Z,0.3
2022-10-05T22:41:26.096Z,1.5
2022-10-05T22:43:31.892Z,0.5
2022-10-05T22:45:37.791Z,0.6
2022-10-05T22:47:43.482Z,0.8
2022-10-05T22:49:49.279Z,0.7
2022-10-05T22:51:55.065Z,1.5
2022-10-05T22:54:03.851Z,1
2022-10-05T22:56:09.656Z,0.8
2022-10-05T22:58:15.426Z,0.5
2022-10-05T23:00:27.561Z,0.9
2022-10-05T23:02:27.082Z,1.5
2022-10-05T23:04:32.814Z,1
2022-10-05T23:06:38.616Z,1.1
2022-10-05T23:08:47.397Z,0.5
2022-10-05T23:10:53.188Z,1.5
2022-10-05T23:13:01.048Z,1.3
2022-10-05T23:15:04.770Z,1.1
2022-10-05T23:17:10.558Z,0.9
2022-10-05T23:19:16.330Z,0.6
2022-10-05T23:21:22.123Z,0.7
2022-10-05T23:23:30.892Z,1.8
2022-10-05T23:25:36.680Z,1.7
2022-10-05T23:27:42.463Z,1
2022-10-05T23:34:23.451Z,1.7
2022-10-05T23:40:43.795Z,3.4
2022-10-05T23:44:55.371Z,1.6
2022-10-05T23:55:27.289Z,1.5
2022-10-05T23:57:33.099Z,0.9
2022-10-05T23:59:38.852Z,1.1
